createdAt,value
2018-09-10T00:00:18.662Z,2.70
2018-09-10T00:02:47.529Z,3.80
2018-09-10T00:05:15.926Z,3.10
2018-09-10T00:07:44.436Z,3.07
2018-09-10T00:10:12.851Z,2.90
2018-09-10T00:12:41.293Z,2.47
2018-09-10T00:15:09.774Z,2.80
2018-09-10T00:17:38.199Z,2.93
2018-09-10T00:20:06.735Z,2.90
2018-09-10T00:22:35.253Z,2.37
2018-09-10T00:25:03.713Z,2.93
2018-09-10T00:27:32.133Z,2.93
2018-09-10T00:30:01.069Z,2.50
2018-09-10T00:32:29.473Z,2.63
2018-09-10T00:34:58.016Z,2.47
2018-09-10T00:37:26.995Z,2.40
2018-09-10T00:39:55.697Z,2.90
2018-09-10T00:42:24.171Z,2.57
2018-09-10T00:44:52.587Z,2.50
2018-09-10T00:47:21.145Z,2.90
2018-09-10T00:49:49.605Z,2.67
2018-09-10T00:52:20.213Z,2.97
2018-09-10T00:54:48.851Z,3.10
2018-09-10T00:57:17.243Z,3.08
2018-09-10T00:59:46.732Z,3.10
2018-09-10T01:02:15.101Z,3.20
2018-09-10T01:04:43.549Z,3.70
2018-09-10T01:07:11.948Z,3.27
2018-09-10T01:09:40.315Z,3.73
2018-09-10T01:12:08.723Z,3.63
2018-09-10T01:14:37.110Z,3.80
2018-09-10T01:17:05.632Z,3.73
2018-09-10T01:19:34.021Z,3.00
2018-09-10T01:22:02.373Z,3.90
2018-09-10T01:24:30.756Z,3.77
2018-09-10T01:26:59.172Z,3.43
2018-09-10T01:29:27.552Z,3.33
2018-09-10T01:31:55.941Z,3.15
2018-09-10T01:34:29.725Z,3.57
2018-09-10T01:36:58.145Z,3.70
2018-09-10T01:39:26.548Z,4.42
2018-09-10T01:41:55.021Z,3.60
2018-09-10T01:44:23.509Z,3.70
2018-09-10T01:46:51.933Z,3.73
2018-09-10T01:49:20.375Z,3.65
2018-09-10T01:51:48.793Z,3.50
2018-09-10T01:54:17.212Z,3.83
2018-09-10T01:56:45.714Z,3.90
2018-09-10T01:59:14.174Z,3.67
2018-09-10T02:01:42.582Z,4.17
2018-09-10T02:04:10.993Z,3.93
2018-09-10T02:06:39.409Z,4.07
2018-09-10T02:09:09.306Z,3.17
2018-09-10T02:11:38.477Z,3.97
2018-09-10T02:14:07.030Z,3.50
2018-09-10T02:16:35.468Z,4.20
2018-09-10T02:19:03.865Z,3.67
2018-09-10T02:21:32.304Z,3.77
2018-09-10T02:24:00.788Z,4.03
2018-09-10T02:26:29.156Z,3.43
2018-09-10T02:28:57.845Z,3.80
2018-09-10T02:31:26.272Z,3.53
2018-09-10T02:33:57.217Z,3.43
2018-09-10T02:36:27.366Z,4.10
2018-09-10T02:38:55.909Z,3.40
2018-09-10T02:41:24.351Z,3.60
2018-09-10T02:43:53.629Z,3.55
2018-09-10T02:46:22.015Z,4.10
2018-09-10T02:48:50.434Z,3.80
2018-09-10T02:51:18.879Z,3.70
2018-09-10T02:53:48.735Z,3.15
2018-09-10T02:56:17.187Z,3.10
2018-09-10T02:58:45.571Z,3.80
2018-09-10T03:01:14.032Z,3.90
2018-09-10T03:03:42.463Z,4.17
2018-09-10T03:06:10.900Z,4.37
2018-09-10T03:08:39.379Z,4.30
2018-09-10T03:11:07.900Z,3.67
2018-09-10T03:13:36.311Z,4.07
2018-09-10T03:16:04.700Z,3.40
2018-09-10T03:18:33.103Z,3.97
2018-09-10T03:21:01.505Z,3.30
2018-09-10T03:23:30.066Z,3.50
2018-09-10T03:25:58.593Z,3.10
2018-09-10T03:28:27.014Z,3.57
2018-09-10T03:30:55.578Z,3.97
2018-09-10T03:33:24.043Z,3.77
2018-09-10T03:35:52.335Z,3.45
2018-09-10T03:38:20.777Z,3.63
2018-09-10T03:40:51.434Z,3.60
2018-09-10T03:43:19.843Z,3.93
2018-09-10T03:45:48.244Z,3.80
2018-09-10T03:48:17.471Z,3.60
2018-09-10T03:50:46.533Z,4.00
2018-09-10T03:53:14.888Z,3.50
2018-09-10T03:55:43.285Z,3.60
2018-09-10T03:58:11.725Z,3.77
2018-09-10T04:00:40.230Z,3.73
2018-09-10T04:03:08.900Z,4.75
2018-09-10T04:05:37.370Z,3.92
2018-09-10T04:08:05.825Z,3.95
2018-09-10T04:10:34.212Z,4.03
2018-09-10T04:13:02.746Z,4.58
2018-09-10T04:15:31.093Z,4.43
2018-09-10T04:17:59.524Z,3.80
2018-09-10T04:20:28.016Z,4.90
2018-09-10T04:23:03.061Z,4.33
2018-09-10T04:25:31.470Z,4.55
2018-09-10T04:27:59.875Z,4.50
2018-09-10T04:30:28.270Z,4.80
2018-09-10T04:32:56.685Z,4.87
2018-09-10T04:35:25.073Z,4.40
2018-09-10T04:37:53.589Z,5.40
2018-09-10T04:40:22.218Z,4.33
2018-09-10T04:42:54.979Z,5.10
2018-09-10T04:45:25.697Z,4.60
2018-09-10T04:47:57.116Z,4.70
2018-09-10T04:50:26.891Z,5.03
2018-09-10T04:52:58.258Z,4.73
2018-09-10T04:55:28.263Z,5.00
2018-09-10T04:57:57.490Z,4.78
2018-09-10T05:00:26.397Z,5.47
2018-09-10T05:02:57.839Z,6.57
2018-09-10T05:05:31.221Z,5.48
2018-09-10T05:07:59.804Z,6.03
2018-09-10T05:10:28.568Z,5.50
2018-09-10T05:12:58.445Z,7.20
2018-09-10T05:15:27.974Z,6.50
2018-09-10T05:17:58.632Z,5.10
2018-09-10T05:20:29.136Z,5.43
2018-09-10T05:22:59.159Z,4.80
2018-09-10T05:25:27.934Z,4.90
2018-09-10T05:27:59.807Z,4.50
2018-09-10T05:30:28.419Z,4.70
2018-09-10T05:32:56.895Z,5.10
2018-09-10T05:35:25.280Z,5.83
2018-09-10T05:37:53.702Z,4.90
2018-09-10T05:40:22.354Z,6.07
2018-09-10T05:42:50.888Z,5.47
2018-09-10T05:45:19.352Z,5.87
2018-09-10T05:47:47.930Z,5.00
2018-09-10T05:50:16.452Z,5.47
2018-09-10T05:52:45.182Z,5.63
2018-09-10T05:55:13.737Z,6.50
2018-09-10T05:57:42.097Z,6.23
2018-09-10T06:00:11.057Z,5.97
2018-09-10T06:02:39.703Z,5.43
2018-09-10T06:05:08.119Z,5.27
2018-09-10T06:07:36.596Z,5.62
2018-09-10T06:10:05.250Z,5.67
2018-09-10T06:12:33.666Z,5.80
2018-09-10T06:15:03.003Z,5.57
2018-09-10T06:17:31.432Z,5.37
2018-09-10T06:19:59.837Z,5.83
2018-09-10T06:22:28.360Z,6.00
2018-09-10T06:24:56.724Z,6.17
2018-09-10T06:27:25.166Z,5.70
2018-09-10T06:29:53.827Z,6.08
2018-09-10T06:32:23.471Z,5.80
2018-09-10T06:34:51.917Z,5.40
2018-09-10T06:37:20.325Z,5.50
2018-09-10T06:39:48.730Z,6.10
2018-09-10T06:42:17.153Z,5.07
2018-09-10T06:44:45.523Z,6.10
2018-09-10T06:47:14.046Z,5.80
2018-09-10T06:49:42.489Z,5.22
2018-09-10T06:52:10.993Z,5.37
2018-09-10T06:54:39.464Z,5.40
2018-09-10T06:57:07.909Z,5.63
2018-09-10T06:59:36.318Z,5.28
2018-09-10T07:02:04.687Z,5.10
2018-09-10T07:04:33.444Z,6.17
2018-09-10T07:07:02.784Z,6.17
2018-09-10T07:09:31.243Z,5.87
2018-09-10T07:11:59.681Z,5.37
2018-09-10T07:14:28.111Z,5.77
2018-09-10T07:16:56.589Z,5.22
2018-09-10T07:19:25.054Z,6.30
2018-09-10T07:21:53.485Z,5.40
2018-09-10T07:24:21.940Z,4.87
2018-09-10T07:26:50.430Z,6.03
2018-09-10T07:29:18.868Z,5.40
2018-09-10T07:31:47.278Z,5.43
2018-09-10T07:34:15.740Z,5.60
2018-09-10T07:36:44.162Z,6.03
2018-09-10T07:39:12.738Z,5.33
2018-09-10T07:41:41.274Z,6.00
2018-09-10T07:44:10.437Z,5.35
2018-09-10T07:46:39.153Z,5.90
2018-09-10T07:49:07.622Z,5.17
2018-09-10T07:51:36.127Z,5.63
2018-09-10T07:54:05.190Z,5.90
2018-09-10T07:56:33.655Z,6.30
2018-09-10T07:59:02.081Z,5.90
2018-09-10T08:01:30.623Z,5.33
2018-09-10T08:03:59.456Z,6.10
2018-09-10T08:06:27.928Z,5.80
2018-09-10T08:08:56.382Z,6.13
2018-09-10T08:11:27.374Z,5.83
2018-09-10T08:13:55.957Z,6.60
2018-09-10T08:16:24.656Z,6.33
2018-09-10T08:18:53.058Z,6.57
2018-09-10T08:21:21.691Z,5.87
2018-09-10T08:23:50.151Z,6.47
2018-09-10T08:26:18.874Z,7.12
2018-09-10T08:28:47.504Z,6.12
2018-09-10T08:31:16.071Z,7.30
2018-09-10T08:33:44.570Z,6.70
2018-09-10T08:36:13.281Z,6.50
2018-09-10T08:38:41.682Z,6.95
2018-09-10T08:41:10.110Z,6.97
2018-09-10T08:43:38.629Z,7.22
2018-09-10T08:46:07.059Z,8.03
2018-09-10T08:48:35.422Z,8.43
2018-09-10T08:51:03.892Z,8.70
2018-09-10T08:53:32.371Z,8.00
2018-09-10T08:56:07.629Z,8.10
2018-09-10T08:58:35.866Z,7.70
2018-09-10T09:01:04.313Z,7.97
2018-09-10T09:03:32.792Z,8.00
2018-09-10T09:06:01.226Z,7.50
2018-09-10T09:08:29.662Z,7.27
2018-09-10T09:10:58.089Z,8.13
2018-09-10T09:13:26.563Z,7.08
2018-09-10T09:15:54.991Z,8.80
2018-09-10T09:18:23.392Z,8.23
2018-09-10T09:20:51.869Z,9.40
2018-09-10T09:23:20.321Z,8.40
2018-09-10T09:25:48.650Z,8.50
2018-09-10T09:28:17.201Z,8.93
2018-09-10T09:30:45.588Z,9.47
2018-09-10T09:33:14.040Z,9.20
2018-09-10T09:35:47.997Z,8.37
2018-09-10T09:38:22.364Z,8.23
2018-09-10T09:40:55.948Z,8.23
2018-09-10T09:43:29.767Z,8.10
2018-09-10T09:46:05.953Z,7.50
2018-09-10T09:48:34.596Z,7.07
2018-09-10T09:51:03.205Z,7.20
2018-09-10T09:53:31.572Z,5.78
2018-09-10T09:56:00.028Z,6.63
2018-09-10T09:58:28.414Z,6.43
2018-09-10T10:01:01.022Z,7.43
2018-09-10T10:03:35.156Z,6.77
2018-09-10T10:06:03.610Z,6.67
2018-09-10T10:08:32.018Z,5.20
2018-09-10T10:11:00.448Z,6.37
2018-09-10T10:13:28.791Z,5.90
2018-09-10T10:15:57.214Z,6.13
2018-09-10T10:18:25.635Z,4.90
2018-09-10T10:20:54.095Z,5.87
2018-09-10T10:23:22.611Z,5.40
2018-09-10T10:25:51.092Z,5.17
2018-09-10T10:28:19.675Z,5.40
2018-09-10T10:30:48.083Z,5.33
2018-09-10T10:33:16.530Z,5.10
2018-09-10T10:35:44.904Z,4.35
2018-09-10T10:38:13.358Z,5.23
2018-09-10T10:40:41.785Z,3.90
2018-09-10T10:43:10.335Z,3.93
2018-09-10T10:45:38.865Z,4.13
2018-09-10T10:48:07.299Z,4.00
2018-09-10T10:50:35.785Z,4.20
2018-09-10T10:53:04.181Z,3.40
2018-09-10T10:55:32.634Z,3.77
2018-09-10T10:58:01.048Z,3.43
2018-09-10T11:00:29.440Z,3.80
2018-09-10T11:02:57.843Z,3.70
2018-09-10T11:05:26.225Z,3.63
2018-09-10T11:07:54.707Z,2.87
2018-09-10T11:10:23.099Z,3.27
2018-09-10T11:12:51.777Z,3.17
2018-09-10T11:15:20.230Z,3.70
2018-09-10T11:17:48.647Z,4.27
2018-09-10T11:20:17.577Z,3.53
2018-09-10T11:22:46.242Z,4.10
2018-09-10T11:25:14.709Z,3.53
2018-09-10T11:27:43.182Z,3.50
2018-09-10T11:30:11.527Z,3.13
2018-09-10T11:32:40.155Z,3.40
2018-09-10T11:35:08.619Z,4.07
2018-09-10T11:37:37.107Z,3.33
2018-09-10T11:40:05.549Z,3.60
2018-09-10T11:42:33.933Z,2.97
2018-09-10T11:45:02.430Z,3.43
2018-09-10T11:47:30.856Z,3.10
2018-09-10T11:49:59.280Z,3.20
2018-09-10T11:52:27.709Z,3.40
2018-09-10T11:54:56.664Z,3.33
2018-09-10T11:57:25.434Z,3.20
2018-09-10T11:59:53.866Z,2.53
2018-09-10T12:02:22.347Z,3.17
2018-09-10T12:04:50.740Z,3.13
2018-09-10T12:07:19.205Z,3.03
2018-09-10T12:09:47.624Z,2.90
2018-09-10T12:12:16.010Z,2.80
2018-09-10T12:14:44.448Z,3.00
2018-09-10T12:17:12.846Z,3.30
2018-09-10T12:19:41.323Z,2.77
2018-09-10T12:22:09.700Z,3.23
2018-09-10T12:24:38.097Z,3.00
2018-09-10T12:27:06.597Z,3.10
2018-09-10T12:29:35.760Z,3.55
2018-09-10T12:32:04.373Z,3.20
2018-09-10T12:34:34.680Z,3.25
2018-09-10T12:37:03.097Z,3.40
2018-09-10T12:39:32.463Z,3.07
2018-09-10T12:42:00.841Z,3.23
2018-09-10T12:44:29.293Z,3.20
2018-09-10T12:46:57.733Z,3.37
2018-09-10T12:49:26.128Z,3.80
2018-09-10T12:51:54.637Z,3.58
2018-09-10T12:54:23.905Z,3.90
2018-09-10T12:56:52.387Z,3.30
2018-09-10T12:59:20.877Z,3.53
2018-09-10T13:01:49.300Z,3.57
2018-09-10T13:04:17.712Z,2.90
2018-09-10T13:06:46.043Z,3.50
2018-09-10T13:09:14.474Z,3.50
2018-09-10T13:11:42.948Z,3.10
2018-09-10T13:14:11.681Z,3.55
2018-09-10T13:16:40.127Z,3.30
2018-09-10T13:19:08.681Z,2.97
2018-09-10T13:21:37.155Z,3.10
2018-09-10T13:24:05.607Z,3.40
2018-09-10T13:26:34.029Z,3.03
2018-09-10T13:29:02.481Z,3.30
2018-09-10T13:31:31.113Z,3.17
2018-09-10T13:33:59.576Z,3.10
2018-09-10T13:36:28.053Z,3.10
2018-09-10T13:38:56.417Z,3.37
2018-09-10T13:41:24.854Z,3.40
2018-09-10T13:43:53.364Z,3.42
2018-09-10T13:46:21.791Z,2.87
2018-09-10T13:48:50.634Z,2.80
2018-09-10T13:51:19.063Z,2.90
2018-09-10T13:53:47.468Z,3.37
2018-09-10T13:56:22.372Z,3.08
2018-09-10T13:58:50.817Z,2.60
2018-09-10T14:01:19.459Z,2.50
2018-09-10T14:03:47.981Z,2.80
2018-09-10T14:06:16.398Z,2.80
2018-09-10T14:08:44.788Z,2.47
2018-09-10T14:11:13.186Z,2.53
2018-09-10T14:13:41.625Z,3.10
2018-09-10T14:16:10.053Z,2.60
2018-09-10T14:18:38.443Z,2.60
2018-09-10T14:21:06.896Z,3.03
2018-09-10T14:23:35.287Z,2.80
2018-09-10T14:26:04.102Z,2.57
2018-09-10T14:28:32.758Z,2.70
2018-09-10T14:31:01.220Z,2.70
2018-09-10T14:33:29.761Z,2.83
2018-09-10T14:35:58.433Z,2.70
2018-09-10T14:38:26.964Z,2.47
2018-09-10T14:40:55.364Z,2.97
2018-09-10T14:43:23.760Z,2.80
2018-09-10T14:45:52.313Z,2.60
2018-09-10T14:48:22.026Z,2.50
2018-09-10T14:50:50.416Z,3.03
2018-09-10T14:53:18.749Z,2.50
2018-09-10T14:55:47.165Z,2.67
2018-09-10T14:58:15.808Z,2.80
2018-09-10T15:00:44.117Z,2.70
2018-09-10T15:03:12.496Z,2.80
2018-09-10T15:05:40.920Z,2.80
2018-09-10T15:08:09.267Z,3.20
2018-09-10T15:10:37.733Z,2.97
2018-09-10T15:13:06.139Z,2.58
2018-09-10T15:15:34.589Z,2.77
2018-09-10T15:18:03.155Z,2.23
2018-09-10T15:20:32.258Z,2.60
2018-09-10T15:23:00.685Z,2.60
2018-09-10T15:25:29.176Z,2.80
2018-09-10T15:27:58.226Z,3.00
2018-09-10T15:30:26.713Z,2.50
2018-09-10T15:32:55.145Z,2.58
2018-09-10T15:35:23.659Z,2.70
2018-09-10T15:37:52.060Z,2.80
2018-09-10T15:40:20.438Z,3.07
2018-09-10T15:42:48.924Z,2.47
2018-09-10T15:45:17.391Z,3.20
2018-09-10T15:47:45.842Z,2.60
2018-09-10T15:50:14.373Z,2.70
2018-09-10T15:52:42.792Z,2.80
2018-09-10T15:55:11.308Z,2.50
2018-09-10T15:57:39.715Z,3.00
2018-09-10T16:00:08.251Z,2.90
2018-09-10T16:02:36.951Z,2.90
2018-09-10T16:05:05.680Z,2.80
2018-09-10T16:07:34.233Z,2.30
2018-09-10T16:10:03.298Z,2.85
2018-09-10T16:12:31.959Z,2.90
2018-09-10T16:15:00.365Z,2.67
2018-09-10T16:17:28.914Z,2.90
2018-09-10T16:19:57.601Z,2.70
2018-09-10T16:22:26.147Z,3.07
2018-09-10T16:24:54.600Z,3.10
2018-09-10T16:27:23.673Z,3.03
2018-09-10T16:29:52.131Z,2.77
2018-09-10T16:32:20.887Z,3.27
2018-09-10T16:34:49.604Z,3.33
2018-09-10T16:37:18.097Z,3.00
2018-09-10T16:39:46.821Z,3.33
2018-09-10T16:42:15.603Z,3.00
2018-09-10T16:44:44.800Z,3.02
2018-09-10T16:47:13.442Z,3.03
2018-09-10T16:49:42.204Z,2.97
2018-09-10T16:52:10.901Z,2.90
2018-09-10T16:54:39.589Z,3.53
2018-09-10T16:57:08.028Z,2.90
2018-09-10T16:59:36.496Z,2.90
2018-09-10T17:02:04.909Z,3.20
2018-09-10T17:04:33.525Z,3.07
2018-09-10T17:07:01.924Z,3.57
2018-09-10T17:09:30.343Z,3.22
2018-09-10T17:11:58.793Z,3.13
2018-09-10T17:14:27.280Z,3.17
2018-09-10T17:16:55.714Z,2.87
2018-09-10T17:19:25.906Z,3.30
2018-09-10T17:21:55.098Z,2.97
2018-09-10T17:24:23.489Z,3.50
2018-09-10T17:26:51.922Z,2.80
2018-09-10T17:29:20.653Z,3.10
2018-09-10T17:31:49.519Z,3.10
2018-09-10T17:34:18.348Z,2.97
2018-09-10T17:36:46.993Z,3.07
2018-09-10T17:39:15.537Z,2.90
2018-09-10T17:41:43.901Z,3.20
2018-09-10T17:44:12.304Z,3.03
2018-09-10T17:46:41.623Z,3.02
2018-09-10T17:49:09.978Z,3.20
2018-09-10T17:51:38.758Z,3.30
2018-09-10T17:54:07.177Z,3.57
2018-09-10T17:56:35.739Z,3.83
2018-09-10T17:59:04.465Z,3.77
2018-09-10T18:01:32.945Z,3.87
2018-09-10T18:04:01.306Z,2.93
2018-09-10T18:06:29.768Z,3.40
2018-09-10T18:08:58.198Z,3.30
2018-09-10T18:11:26.591Z,3.30
2018-09-10T18:13:54.984Z,3.27
2018-09-10T18:16:23.423Z,3.00
2018-09-10T18:18:51.859Z,3.00
2018-09-10T18:21:20.677Z,3.20
2018-09-10T18:23:49.095Z,3.23
2018-09-10T18:26:17.546Z,3.30
2018-09-10T18:28:45.918Z,3.03
2018-09-10T18:31:14.314Z,3.77
2018-09-10T18:33:42.707Z,3.80
2018-09-10T18:36:11.105Z,4.13
2018-09-10T18:38:39.501Z,3.20
2018-09-10T18:41:07.893Z,3.20
2018-09-10T18:43:36.302Z,3.10
2018-09-10T18:46:04.710Z,2.93
2018-09-10T18:48:33.091Z,2.63
2018-09-10T18:51:01.477Z,2.75
2018-09-10T18:53:29.983Z,3.50
2018-09-10T18:58:29.372Z,3.03
2018-09-10T19:00:57.921Z,3.40
2018-09-10T19:03:26.259Z,2.80
2018-09-10T19:05:54.677Z,2.72
2018-09-10T19:08:23.254Z,2.93
2018-09-10T19:10:51.691Z,3.45
2018-09-10T19:13:20.355Z,2.93
2018-09-10T19:15:48.767Z,3.00
2018-09-10T19:18:18.381Z,3.63
2018-09-10T19:20:46.911Z,3.42
2018-09-10T19:23:15.367Z,3.07
2018-09-10T19:25:44.453Z,3.90
2018-09-10T19:28:12.866Z,3.80
2018-09-10T19:30:41.281Z,3.80
2018-09-10T19:33:09.957Z,3.30
2018-09-10T19:35:38.568Z,3.50
2018-09-10T19:38:07.033Z,3.80
2018-09-10T19:40:36.036Z,3.93
2018-09-10T19:43:04.724Z,3.67
2018-09-10T19:45:33.249Z,3.10
2018-09-10T19:48:01.763Z,3.37
2018-09-10T19:50:30.268Z,3.27
2018-09-10T19:52:58.795Z,4.08
2018-09-10T19:55:27.297Z,3.43
2018-09-10T19:57:56.761Z,4.10
2018-09-10T20:00:25.369Z,3.50
2018-09-10T20:02:53.785Z,3.70
2018-09-10T20:05:22.165Z,3.80
2018-09-10T20:07:50.624Z,3.63
2018-09-10T20:10:19.258Z,4.40
2018-09-10T20:12:47.766Z,4.35
2018-09-10T20:15:16.154Z,4.43
2018-09-10T20:17:44.697Z,3.90
2018-09-10T20:20:13.118Z,3.80
2018-09-10T20:22:41.582Z,3.40
2018-09-10T20:25:09.977Z,4.47
2018-09-10T20:27:40.561Z,4.33
2018-09-10T20:30:09.068Z,4.15
2018-09-10T20:32:37.483Z,4.30
2018-09-10T20:35:05.971Z,4.07
2018-09-10T20:37:34.883Z,4.80
2018-09-10T20:40:03.380Z,4.13
2018-09-10T20:42:32.768Z,4.60
2018-09-10T20:45:01.288Z,4.47
2018-09-10T20:47:29.764Z,4.40
2018-09-10T20:49:58.232Z,3.72
2018-09-10T20:52:26.688Z,4.50
2018-09-10T20:54:55.241Z,4.23
2018-09-10T20:57:23.708Z,4.12
2018-09-10T20:59:52.098Z,4.13
2018-09-10T21:02:20.705Z,4.20
2018-09-10T21:04:49.357Z,4.10
2018-09-10T21:07:17.982Z,4.30
2018-09-10T21:09:53.875Z,3.97
2018-09-10T21:12:22.473Z,4.50
2018-09-10T21:14:50.986Z,4.67
2018-09-10T21:17:19.409Z,4.60
2018-09-10T21:19:47.875Z,4.63
2018-09-10T21:22:16.279Z,4.57
2018-09-10T21:24:44.794Z,4.40
2018-09-10T21:27:13.222Z,4.30
2018-09-10T21:29:41.647Z,3.90
2018-09-10T21:32:10.052Z,3.65
2018-09-10T21:34:38.703Z,3.33
2018-09-10T21:37:07.172Z,4.17
2018-09-10T21:39:35.624Z,3.90
2018-09-10T21:42:04.083Z,4.25
2018-09-10T21:44:32.577Z,4.00
2018-09-10T21:47:01.106Z,4.40
2018-09-10T21:49:29.437Z,3.85
2018-09-10T21:51:57.888Z,4.77
2018-09-10T21:54:26.304Z,4.20
2018-09-10T21:56:54.721Z,4.20
2018-09-10T21:59:23.147Z,4.23
2018-09-10T22:01:53.464Z,5.53
2018-09-10T22:04:21.881Z,4.30
2018-09-10T22:06:50.383Z,4.00
2018-09-10T22:09:18.788Z,4.90
2018-09-10T22:11:52.693Z,4.70
2018-09-10T22:14:21.082Z,4.90
2018-09-10T22:16:49.462Z,4.45
2018-09-10T22:19:18.286Z,5.37
2018-09-10T22:21:47.617Z,4.80
2018-09-10T22:24:17.017Z,5.20
2018-09-10T22:26:45.475Z,5.30
2018-09-10T22:29:14.029Z,6.00
2018-09-10T22:31:42.521Z,4.70
2018-09-10T22:34:10.960Z,5.50
2018-09-10T22:36:40.189Z,5.10
2018-09-10T22:39:10.535Z,5.30
2018-09-10T22:41:38.987Z,4.70
2018-09-10T22:44:07.524Z,4.75
2018-09-10T22:46:36.620Z,5.30
2018-09-10T22:49:06.830Z,4.50
2018-09-10T22:51:35.327Z,4.90
2018-09-10T22:54:04.456Z,5.10
2018-09-10T22:56:32.853Z,4.57
2018-09-10T22:59:01.593Z,5.93
2018-09-10T23:01:30.955Z,6.40
2018-09-10T23:04:03.805Z,5.00
2018-09-10T23:06:33.302Z,5.03
2018-09-10T23:09:02.994Z,5.30
2018-09-10T23:11:31.515Z,5.47
2018-09-10T23:14:00.090Z,5.20
2018-09-10T23:16:28.677Z,4.95
2018-09-10T23:18:59.405Z,5.13
2018-09-10T23:21:27.863Z,6.10
2018-09-10T23:23:56.316Z,6.40
2018-09-10T23:26:24.691Z,5.20
2018-09-10T23:28:53.132Z,5.13
2018-09-10T23:31:21.562Z,5.87
2018-09-10T23:33:50.199Z,5.30
2018-09-10T23:36:18.610Z,5.40
2018-09-10T23:38:47.022Z,4.93
2018-09-10T23:41:15.460Z,5.70
2018-09-10T23:43:43.880Z,5.30
2018-09-10T23:46:12.224Z,6.20
2018-09-10T23:48:40.639Z,5.50
2018-09-10T23:51:09.058Z,6.20
2018-09-10T23:53:37.505Z,5.97
2018-09-10T23:56:05.916Z,5.77
2018-09-10T23:58:34.333Z,6.20
